createdAt,value
2023-02-27T00:01:35.249Z,-0.64
2023-02-27T00:04:03.786Z,-0.64
2023-02-27T00:06:32.070Z,-0.60
2023-02-27T00:09:00.483Z,-0.60
2023-02-27T00:11:29.045Z,-0.64
2023-02-27T00:13:57.822Z,-0.65
2023-02-27T00:16:27.344Z,-0.72
2023-02-27T00:18:56.999Z,-0.74
2023-02-27T00:21:25.778Z,-0.75
2023-02-27T00:23:54.012Z,-0.90
2023-02-27T00:26:22.149Z,-0.88
2023-02-27T00:28:50.342Z,-0.90
2023-02-27T00:31:18.509Z,-0.85
2023-02-27T00:33:47.939Z,-0.90
2023-02-27T00:36:16.282Z,-0.89
2023-02-27T00:38:44.311Z,-0.93
2023-02-27T00:41:12.347Z,-1.02
2023-02-27T00:43:40.425Z,-1.06
2023-02-27T00:46:09.203Z,-0.97
2023-02-27T00:48:37.508Z,-0.99
2023-02-27T00:51:07.189Z,-1.06
2023-02-27T00:53:35.203Z,-0.94
2023-02-27T00:56:03.267Z,-1.08
2023-02-27T00:58:31.304Z,-0.92
2023-02-27T01:01:01.052Z,-1.06
2023-02-27T01:03:29.476Z,-1.08
2023-02-27T01:05:58.626Z,-1.13
2023-02-27T01:08:28.033Z,-1.21
2023-02-27T01:10:56.802Z,-1.23
2023-02-27T01:13:25.163Z,-1.02
2023-02-27T01:15:53.651Z,-1.28
2023-02-27T01:18:21.710Z,-1.37
2023-02-27T01:20:54.391Z,-1.36
2023-02-27T01:23:24.524Z,-1.43
2023-02-27T01:25:53.943Z,-1.36
2023-02-27T01:28:22.059Z,-1.33
2023-02-27T01:30:50.154Z,-1.33
2023-02-27T01:33:18.519Z,-1.19
2023-02-27T01:35:46.600Z,-1.35
2023-02-27T01:38:14.740Z,-1.52
2023-02-27T01:40:44.197Z,-1.46
2023-02-27T01:43:18.963Z,-1.61
2023-02-27T01:45:49.067Z,-1.75
2023-02-27T01:48:23.183Z,-1.67
2023-02-27T01:50:57.510Z,-1.92
2023-02-27T01:53:28.839Z,-1.94
2023-02-27T01:56:03.459Z,-1.87
2023-02-27T01:58:33.326Z,-1.92
2023-02-27T02:01:01.638Z,-1.89
2023-02-27T02:03:38.744Z,-1.87
2023-02-27T02:06:10.144Z,-1.89
2023-02-27T02:08:44.980Z,-1.74
2023-02-27T02:11:16.275Z,-1.75
2023-02-27T02:13:46.046Z,-1.87
2023-02-27T02:16:40.208Z,-1.84
2023-02-27T02:19:54.279Z,-1.82
2023-02-27T02:23:18.760Z,-1.81
2023-02-27T02:26:33.517Z,-1.75
2023-02-27T02:30:02.077Z,-1.72
2023-02-27T02:33:11.470Z,-1.75
2023-02-27T02:36:23.739Z,-1.76
2023-02-27T02:39:28.512Z,-1.78
2023-02-27T02:42:05.643Z,-1.78
2023-02-27T02:44:49.021Z,-1.82
2023-02-27T02:47:31.220Z,-1.86
2023-02-27T02:50:10.874Z,-1.93
2023-02-27T02:52:53.651Z,-1.93
2023-02-27T02:55:31.524Z,-1.92
2023-02-27T02:58:11.059Z,-1.91
2023-02-27T03:00:46.580Z,-1.88
2023-02-27T03:03:27.110Z,-1.89
2023-02-27T03:06:01.849Z,-1.89
2023-02-27T03:08:35.198Z,-1.91
2023-02-27T03:11:06.631Z,-1.91
2023-02-27T03:13:41.205Z,-1.92
2023-02-27T03:16:16.516Z,-1.93
2023-02-27T03:18:54.069Z,-1.96
2023-02-27T03:21:34.444Z,-2.06
2023-02-27T03:24:09.212Z,-2.04
2023-02-27T03:26:44.665Z,-1.99
2023-02-27T03:29:21.502Z,-2.06
2023-02-27T03:31:57.688Z,-2.10
2023-02-27T03:34:33.403Z,-2.14
2023-02-27T03:37:10.386Z,-2.12
2023-02-27T03:39:48.023Z,-2.10
2023-02-27T03:42:30.107Z,-2.12
2023-02-27T03:45:06.870Z,-2.15
2023-02-27T03:47:36.186Z,-2.13
2023-02-27T03:50:04.837Z,-2.25
2023-02-27T03:52:33.752Z,-2.18
2023-02-27T03:55:10.774Z,-2.25
2023-02-27T03:57:42.014Z,-2.16
2023-02-27T04:00:16.645Z,-2.15
2023-02-27T04:02:48.150Z,-2.17
2023-02-27T04:05:16.320Z,-2.29
2023-02-27T04:08:02.729Z,-2.33
2023-02-27T04:10:58.626Z,-2.30
2023-02-27T04:13:49.491Z,-2.38
2023-02-27T04:17:04.505Z,-2.51
2023-02-27T04:20:01.736Z,-2.46
2023-02-27T04:22:39.455Z,-2.59
2023-02-27T04:25:31.492Z,-2.63
2023-02-27T04:28:11.183Z,-2.65
2023-02-27T04:30:51.145Z,-2.67
2023-02-27T04:33:31.021Z,-2.72
2023-02-27T04:36:07.788Z,-2.65
2023-02-27T04:38:41.780Z,-2.58
2023-02-27T04:41:17.126Z,-2.72
2023-02-27T04:43:48.325Z,-2.82
2023-02-27T04:46:23.316Z,-2.79
2023-02-27T04:48:59.357Z,-2.73
2023-02-27T04:51:36.009Z,-2.67
2023-02-27T04:54:12.936Z,-2.67
2023-02-27T04:56:47.517Z,-2.84
2023-02-27T04:59:22.297Z,-2.84
2023-02-27T05:01:58.504Z,-2.94
2023-02-27T05:04:32.728Z,-2.97
2023-02-27T05:07:06.633Z,-2.92
2023-02-27T05:09:44.724Z,-2.94
2023-02-27T05:12:22.276Z,-2.97
2023-02-27T05:14:57.624Z,-2.90
2023-02-27T05:17:35.847Z,-2.83
2023-02-27T05:20:07.051Z,-2.75
2023-02-27T05:22:47.173Z,-2.82
2023-02-27T05:25:24.879Z,-3.00
2023-02-27T05:28:00.904Z,-3.05
2023-02-27T05:30:37.891Z,-3.03
2023-02-27T05:33:17.015Z,-3.05
2023-02-27T05:35:53.690Z,-2.94
2023-02-27T05:38:28.417Z,-2.85
2023-02-27T05:41:04.512Z,-2.89
2023-02-27T05:43:41.201Z,-2.93
2023-02-27T05:46:18.223Z,-2.91
2023-02-27T05:48:53.102Z,-2.93
2023-02-27T05:51:25.780Z,-2.88
2023-02-27T05:54:03.376Z,-2.89
2023-02-27T05:56:34.881Z,-2.86
2023-02-27T05:59:11.531Z,-2.80
2023-02-27T06:01:39.763Z,-2.82
2023-02-27T06:04:09.205Z,-2.84
2023-02-27T06:06:38.121Z,-2.83
2023-02-27T06:09:06.162Z,-2.76
2023-02-27T06:11:34.209Z,-2.73
2023-02-27T06:14:02.269Z,-2.74
2023-02-27T06:16:30.720Z,-2.70
2023-02-27T06:18:59.010Z,-2.65
2023-02-27T06:21:28.426Z,-2.63
2023-02-27T06:23:56.534Z,-2.59
2023-02-27T06:26:24.761Z,-2.54
2023-02-27T06:28:52.937Z,-2.54
2023-02-27T06:31:21.004Z,-2.53
2023-02-27T06:33:49.168Z,-2.52
2023-02-27T06:36:17.359Z,-2.48
2023-02-27T06:38:46.808Z,-2.45
2023-02-27T06:41:14.859Z,-2.39
2023-02-27T06:43:42.953Z,-2.36
2023-02-27T06:46:11.406Z,-2.36
2023-02-27T06:48:39.521Z,-2.33
2023-02-27T06:51:07.752Z,-2.36
2023-02-27T06:53:35.788Z,-2.31
2023-02-27T06:56:05.988Z,-2.30
2023-02-27T06:58:34.078Z,-2.29
2023-02-27T07:01:02.297Z,-2.25
2023-02-27T07:03:30.790Z,-2.23
2023-02-27T07:05:59.273Z,-2.21
2023-02-27T07:08:27.857Z,-2.19
2023-02-27T07:10:55.960Z,-2.17
2023-02-27T07:13:25.420Z,-2.12
2023-02-27T07:15:54.031Z,-2.08
2023-02-27T07:18:22.157Z,-2.07
2023-02-27T07:20:52.393Z,-2.11
2023-02-27T07:23:20.449Z,-2.06
2023-02-27T07:25:48.759Z,-2.03
2023-02-27T07:28:17.061Z,-2.02
2023-02-27T07:30:46.625Z,-2.00
2023-02-27T07:33:14.725Z,-2.02
2023-02-27T07:35:42.828Z,-1.98
2023-02-27T07:38:10.890Z,-1.96
2023-02-27T07:40:38.920Z,-1.94
2023-02-27T07:43:07.005Z,-1.89
2023-02-27T07:45:35.209Z,-1.87
2023-02-27T07:48:04.834Z,-1.85
2023-02-27T07:50:32.851Z,-1.83
2023-02-27T07:53:00.923Z,-1.82
2023-02-27T07:55:29.048Z,-1.79
2023-02-27T07:57:57.104Z,-1.77
2023-02-27T08:00:25.353Z,-1.70
2023-02-27T08:02:53.456Z,-1.66
2023-02-27T08:05:22.880Z,-1.64
2023-02-27T08:07:51.376Z,-1.61
2023-02-27T08:10:19.692Z,-1.59
2023-02-27T08:12:47.826Z,-1.51
2023-02-27T08:15:17.164Z,-1.43
2023-02-27T08:17:46.886Z,-1.33
2023-02-27T08:20:16.236Z,-1.23
2023-02-27T08:22:45.672Z,-1.14
2023-02-27T08:25:13.726Z,-1.06
2023-02-27T08:27:42.208Z,-0.97
2023-02-27T08:30:13.681Z,-0.89
2023-02-27T08:32:42.062Z,-0.78
